Time;durP1;ratioP1;P1;durP2;ratioP2;P2;SDS_P1;SDS_P2;PMS_P1;PMS_P2;Temp;Humidity;BMP_temperature;BMP_pressure;BME280_temperature;BME280_humidity;BME280_pressure;Samples;Min_cycle;Max_cycle;Signal;HPM_P1;HPM_P2
2022/09/22 00:01:29;;;;;;;0.30;0.20;;;10.80;99.90;;;11.57;72.19;101402.72;5052365;28;21261;-65
2022/09/22 00:04:00;;;;;;;0.30;0.27;;;10.80;99.90;;;11.53;72.98;101411.72;5018368;28;20726;-65
2022/09/22 00:06:31;;;;;;;0.30;0.20;;;10.70;99.90;;;11.41;73.15;101410.72;5045025;28;20640;-64
2022/09/22 00:09:00;;;;;;;0.30;0.30;;;10.70;99.90;;;11.44;72.75;101402.69;5049577;28;20663;-63
2022/09/22 00:11:37;;;;;;;0.30;0.20;;;10.60;99.90;;;11.37;72.46;101403.19;5049339;28;20631;-65
2022/09/22 00:14:26;;;;;;;1.70;1.60;;;10.60;99.90;;;11.31;73.91;101412.22;5013016;28;21266;-65
2022/09/22 00:16:57;;;;;;;0.30;0.20;;;10.60;99.90;;;11.37;73.36;101400.56;5014864;28;20621;-64
2022/09/22 00:19:36;;;;;;;0.30;0.20;;;10.60;99.90;;;11.18;73.64;101407.88;5032254;28;20613;-65
2022/09/22 00:22:04;;;;;;;0.30;0.30;;;10.50;99.90;;;11.22;73.29;101397.09;5022934;28;20639;-65
2022/09/22 00:24:32;;;;;;;0.30;0.20;;;10.50;99.90;;;11.25;74.05;101402.16;5049618;28;20647;-65
2022/09/22 00:26:59;;;;;;;0.30;0.20;;;10.50;99.90;;;11.19;73.55;101412.16;5051856;28;20608;-64
2022/09/22 00:29:28;;;;;;;0.30;0.30;;;10.50;99.90;;;11.04;73.56;101411.31;5037940;28;20745;-65
2022/09/22 00:31:56;;;;;;;0.30;0.30;;;10.40;99.90;;;11.12;73.89;101410.84;5032727;28;20596;-65
2022/09/22 00:34:25;;;;;;;0.30;0.30;;;10.40;99.90;;;11.15;74.12;101410.66;5059548;28;20648;-65
2022/09/22 00:36:53;;;;;;;0.30;0.30;;;10.40;99.90;;;11.16;73.31;101410.56;5050154;28;21174;-66
2022/09/22 00:39:20;;;;;;;0.30;0.30;;;10.30;99.90;;;11.14;73.65;101404.59;5049266;28;20595;-66
2022/09/22 00:41:50;;;;;;;0.30;0.20;;;10.30;99.90;;;11.13;74.32;101402.94;5049441;28;20639;-66
2022/09/22 00:44:20;;;;;;;0.30;0.20;;;10.30;99.90;;;11.08;73.33;101412.81;5040713;28;20721;-65
2022/09/22 00:47:00;;;;;;;0.30;0.20;;;10.30;99.90;;;11.07;73.63;101418.13;5049943;28;20996;-66
2022/09/22 00:50:16;;;;;;;0.30;0.30;;;10.30;99.90;;;11.14;74.00;101412.44;5032799;28;20690;-66
2022/09/22 00:52:52;;;;;;;0.30;0.20;;;10.30;99.90;;;11.08;74.54;101414.56;5024525;28;20654;-65
2022/09/22 00:55:31;;;;;;;0.30;0.20;;;10.30;99.90;;;10.95;74.25;101414.50;5013093;28;20624;-65
2022/09/22 00:58:00;;;;;;;0.30;0.30;;;10.20;99.90;;;10.93;74.79;101417.22;5037087;28;20643;-65
2022/09/22 01:00:27;;;;;;;0.30;0.20;;;10.20;99.90;;;10.57;77.21;101414.19;5048173;28;20636;-66
2022/09/22 01:02:58;;;;;;;0.30;0.20;;;10.10;99.90;;;10.69;77.04;101410.84;5050149;28;20646;-66
2022/09/22 01:05:27;;;;;;;0.30;0.30;;;10.10;99.90;;;10.67;77.82;101415.31;5004677;28;20624;-65
2022/09/22 01:07:54;;;;;;;0.30;0.30;;;10.10;99.90;;;10.70;77.20;101414.31;5030449;28;20643;-64
2022/09/22 01:10:22;;;;;;;0.30;0.20;;;10.10;99.90;;;10.67;78.13;101404.03;5031580;28;20710;-66
2022/09/22 01:13:20;;;;;;;0.30;0.30;;;10.10;99.90;;;10.72;78.23;101407.22;5030345;28;20687;-66
2022/09/22 01:16:25;;;;;;;0.30;0.20;;;10.10;99.90;;;10.65;77.93;101400.69;5027224;28;20626;-67
2022/09/22 01:19:06;;;;;;;0.30;0.20;;;10.10;99.90;;;10.66;78.91;101410.19;5049966;28;20622;-64
2022/09/22 01:22:03;;;;;;;1.07;1.07;;;10.00;99.90;;;10.59;79.34;101401.91;5031889;28;20696;-64
2022/09/22 01:24:45;;;;;;;0.30;0.30;;;10.10;99.90;;;10.62;79.19;101406.09;5048096;28;20725;-64
2022/09/22 01:27:52;;;;;;;0.30;0.20;;;10.10;99.90;;;10.63;79.54;101395.56;5046787;28;20637;-65
2022/09/22 01:30:43;;;;;;;0.30;0.20;;;10.00;99.90;;;10.61;79.51;101402.66;4951702;28;20676;-66
2022/09/22 01:33:21;;;;;;;0.30;0.30;;;10.00;99.90;;;10.55;78.91;101397.78;5029137;28;21168;-65
2022/09/22 01:35:53;;;;;;;0.30;0.20;;;10.10;99.90;;;10.51;79.29;101395.47;5029869;28;20714;-65
2022/09/22 01:38:32;;;;;;;0.30;0.20;;;10.00;99.90;;;10.60;77.42;101393.16;5047839;28;20632;-64
2022/09/22 01:41:16;;;;;;;0.30;0.20;;;9.90;99.90;;;10.53;76.93;101391.84;5050178;28;20626;-65
2022/09/22 01:43:59;;;;;;;0.70;0.70;;;9.90;99.90;;;10.59;76.64;101386.25;5048749;28;20712;-65
2022/09/22 01:46:29;;;;;;;0.30;0.20;;;9.90;99.90;;;10.63;76.92;101387.72;5048612;28;20622;-65
2022/09/22 01:49:05;;;;;;;0.30;0.20;;;9.90;99.90;;;10.61;76.89;101383.53;5030422;28;20663;-65
2022/09/22 01:51:50;;;;;;;0.30;0.20;;;9.90;99.90;;;10.52;76.67;101384.91;5048165;28;20692;-66
2022/09/22 01:54:31;;;;;;;0.30;0.20;;;9.80;99.90;;;10.53;77.11;101385.75;5056414;23;20695;-68
2022/09/22 01:57:13;;;;;;;0.30;0.30;;;9.80;99.90;;;10.47;76.94;101378.31;5045475;28;21223;-68
2022/09/22 01:59:43;;;;;;;0.30;0.30;;;9.70;99.90;;;10.45;77.25;101378.41;5046031;28;20643;-67
2022/09/22 02:02:43;;;;;;;0.30;0.20;;;9.70;99.90;;;10.49;75.95;101376.44;5045831;28;20688;-68
2022/09/22 02:05:31;;;;;;;0.30;0.20;;;9.70;99.90;;;10.48;76.47;101378.22;5034531;28;20667;-68
2022/09/22 02:08:01;;;;;;;0.30;0.30;;;9.70;99.90;;;10.37;77.27;101378.00;5052956;28;20623;-69
2022/09/22 02:10:35;;;;;;;0.30;0.20;;;9.70;99.90;;;10.38;77.06;101382.31;5067633;28;20635;-71
2022/09/22 02:13:02;;;;;;;0.30;0.20;;;9.70;99.90;;;10.38;77.38;101371.88;5051006;28;20612;-68
2022/09/22 02:18:31;;;;;;;0.30;0.30;;;9.70;99.90;;;10.40;77.30;101377.84;5066722;28;20748;-68
2022/09/22 02:20:58;;;;;;;0.30;0.20;;;9.70;99.90;;;10.44;77.04;101381.09;5067426;28;20693;-68
2022/09/22 02:23:26;;;;;;;0.30;0.20;;;9.70;99.90;;;10.40;76.42;101384.81;5067492;28;20628;-68
2022/09/22 02:25:54;;;;;;;0.30;0.20;;;9.60;99.90;;;10.40;76.66;101377.84;5052432;28;20637;-67
2022/09/22 02:28:23;;;;;;;0.30;0.30;;;9.60;99.90;;;10.39;76.33;101370.91;5029918;28;20668;-68
2022/09/22 02:30:53;;;;;;;0.30;0.20;;;9.60;99.90;;;10.17;76.98;101377.50;5040019;28;21365;-68
2022/09/22 02:33:41;;;;;;;0.30;0.30;;;9.60;99.90;;;10.19;76.66;101376.50;5045107;28;20748;-67
2022/09/22 02:36:53;;;;;;;0.30;0.20;;;9.50;99.90;;;10.29;77.43;101376.78;5032324;28;20619;-68
2022/09/22 02:39:37;;;;;;;0.30;0.20;;;9.60;99.90;;;10.21;77.78;101366.81;5051076;28;21270;-69
2022/09/22 02:42:34;;;;;;;0.30;0.20;;;9.60;99.90;;;10.06;78.52;101378.94;5043990;28;20680;-68
2022/09/22 02:45:24;;;;;;;0.30;0.30;;;9.50;99.90;;;10.02;79.25;101377.44;5036892;28;20662;-65
2022/09/22 02:48:22;;;;;;;0.30;0.20;;;9.50;99.90;;;10.01;79.56;101367.06;5047629;28;20717;-67
2022/09/22 02:50:50;;;;;;;0.30;0.20;;;9.50;99.90;;;10.08;79.05;101369.25;5037507;28;20642;-66
2022/09/22 02:53:17;;;;;;;0.30;0.20;;;9.50;99.90;;;10.07;79.21;101366.75;5050435;28;20639;-66
2022/09/22 02:55:46;;;;;;;0.30;0.20;;;9.50;99.90;;;10.09;79.28;101375.31;5051823;28;20770;-65
2022/09/22 02:58:15;;;;;;;0.30;0.20;;;9.50;99.90;;;9.91;80.30;101365.94;5051525;28;20636;-66
2022/09/22 03:00:44;;;;;;;0.30;0.20;;;9.50;99.90;;;9.99;80.05;101372.38;5051084;28;21053;-66
2022/09/22 03:03:11;;;;;;;0.30;0.20;;;9.50;99.90;;;9.95;80.62;101375.25;5036214;28;20651;-68
2022/09/22 03:05:38;;;;;;;0.30;0.20;;;9.50;99.90;;;9.96;80.42;101369.97;5045381;28;20632;-67
2022/09/22 03:08:06;;;;;;;0.30;0.20;;;9.50;99.90;;;10.00;80.69;101368.88;5031663;28;21262;-68
2022/09/22 03:10:33;;;;;;;3.30;1.13;;;9.50;99.90;;;10.02;80.57;101363.56;5042798;28;20721;-66
2022/09/22 03:13:00;;;;;;;0.30;0.20;;;9.40;99.90;;;10.08;79.77;101361.44;5051259;28;20630;-68
2022/09/22 03:15:45;;;;;;;0.30;0.20;;;9.40;99.90;;;10.02;79.28;101364.41;5051196;28;20719;-68
2022/09/22 03:18:13;;;;;;;0.30;0.20;;;9.40;99.90;;;9.99;79.72;101367.19;5028601;28;20618;-68
2022/09/22 03:20:40;;;;;;;0.30;0.30;;;9.30;99.90;;;10.00;79.70;101362.81;5064437;28;20628;-65
2022/09/22 03:23:08;;;;;;;0.30;0.20;;;9.30;99.90;;;10.01;79.05;101367.06;5033434;28;21219;-68
2022/09/22 03:25:35;;;;;;;0.30;0.20;;;9.30;99.90;;;10.04;79.38;101356.50;5066310;28;20632;-67
2022/09/22 03:28:02;;;;;;;0.30;0.20;;;9.30;99.90;;;9.98;79.52;101362.91;5049315;28;20879;-69
2022/09/22 03:30:29;;;;;;;0.53;0.53;;;9.40;99.90;;;10.01;79.03;101356.66;5049168;28;21245;-66
2022/09/22 03:32:57;;;;;;;0.30;0.20;;;9.30;99.90;;;10.02;79.41;101360.94;5050267;28;20620;-68
2022/09/22 03:35:23;;;;;;;0.30;0.20;;;9.30;99.90;;;9.92;79.62;101357.22;5048756;28;20644;-66
2022/09/22 03:37:50;;;;;;;0.30;0.20;;;9.30;99.90;;;9.91;80.19;101353.75;5052387;28;20623;-67
2022/09/22 03:40:17;;;;;;;0.30;0.30;;;9.30;99.90;;;9.80;80.31;101350.91;5065877;28;21175;-66
2022/09/22 03:42:47;;;;;;;0.30;0.20;;;9.20;99.90;;;9.80;80.48;101357.88;5044700;28;20891;-68
2022/09/22 03:45:18;;;;;;;0.87;0.87;;;9.20;99.90;;;9.72;81.29;101353.13;5050228;28;20644;-68
2022/09/22 03:47:47;;;;;;;0.30;0.20;;;9.20;99.90;;;9.64;82.09;101351.88;5051125;28;20621;-67
2022/09/22 03:50:19;;;;;;;0.30;0.20;;;9.20;99.90;;;9.64;81.90;101351.88;5046759;28;21231;-68
2022/09/22 03:52:51;;;;;;;0.30;0.20;;;9.10;99.90;;;9.55;82.45;101355.00;5030742;28;20668;-68
2022/09/22 03:55:18;;;;;;;0.30;0.20;;;9.10;99.90;;;9.59;82.09;101356.50;5030953;28;20768;-64
2022/09/22 03:57:45;;;;;;;0.50;0.50;;;9.10;99.90;;;9.72;81.60;101345.31;5047451;28;21230;-68
2022/09/22 04:00:15;;;;;;;0.30;0.20;;;9.10;99.90;;;9.72;81.86;101349.69;5045133;28;20640;-69
2022/09/22 04:02:43;;;;;;;0.30;0.30;;;9.10;99.90;;;9.75;81.66;101346.91;5048275;28;20643;-67
2022/09/22 04:05:10;;;;;;;0.30;0.20;;;9.20;99.90;;;9.70;82.09;101346.31;5046360;28;20675;-68
2022/09/22 04:07:39;;;;;;;0.30;0.20;;;9.10;99.90;;;9.71;81.61;101346.22;5043363;28;20691;-68
2022/09/22 04:10:12;;;;;;;0.27;0.20;;;9.20;99.90;;;9.63;82.36;101342.38;5040243;28;21283;-68
2022/09/22 04:12:39;;;;;;;0.30;0.20;;;9.10;99.90;;;9.64;82.27;101341.47;5050038;28;21221;-68
2022/09/22 04:15:07;;;;;;;0.30;0.20;;;9.10;99.90;;;9.61;81.98;101337.25;5051445;28;20695;-67
2022/09/22 04:17:34;;;;;;;0.30;0.20;;;9.10;99.90;;;9.43;83.24;101335.72;5048458;28;20635;-67
2022/09/22 04:20:06;;;;;;;0.30;0.20;;;9.00;99.90;;;9.47;83.69;101341.56;5045043;28;21175;-67
2022/09/22 04:22:33;;;;;;;0.30;0.20;;;8.90;99.90;;;9.42;83.93;101335.75;5063484;28;20639;-68
2022/09/22 04:25:00;;;;;;;0.30;0.20;;;8.90;99.90;;;9.50;83.35;101333.59;5050235;28;20648;-68
2022/09/22 04:27:27;;;;;;;0.30;0.20;;;8.90;99.90;;;9.43;84.08;101332.25;5049557;28;21042;-68
2022/09/22 04:29:54;;;;;;;0.30;0.20;;;8.90;99.90;;;9.36;84.25;101337.81;5041508;28;21242;-69
2022/09/22 04:32:21;;;;;;;0.30;0.20;;;8.90;99.90;;;9.47;84.22;101337.22;5049365;28;20979;-69
2022/09/22 04:34:48;;;;;;;0.30;0.20;;;8.90;99.90;;;9.32;84.52;101341.50;5049646;28;20648;-66
2022/09/22 04:37:15;;;;;;;0.30;0.20;;;8.80;99.90;;;9.30;85.07;101345.13;5049732;28;20632;-65
2022/09/22 04:39:41;;;;;;;0.30;0.20;;;8.80;99.90;;;9.28;84.88;101342.56;5050166;28;20616;-68
2022/09/22 04:42:08;;;;;;;0.30;0.20;;;8.80;99.90;;;9.42;84.32;101336.63;5064764;28;21252;-65
2022/09/22 04:44:35;;;;;;;0.20;0.20;;;8.80;99.90;;;9.35;84.57;101330.91;5042203;28;20645;-69
2022/09/22 04:47:03;;;;;;;0.30;0.20;;;8.80;99.90;;;9.39;84.46;101334.19;5033670;28;21056;-67
2022/09/22 04:49:30;;;;;;;0.30;0.30;;;8.80;99.90;;;9.33;84.68;101335.38;5049636;28;21043;-68
2022/09/22 04:51:57;;;;;;;0.30;0.20;;;8.80;99.90;;;9.36;83.93;101331.75;5038343;28;20637;-65
2022/09/22 04:54:24;;;;;;;0.30;0.20;;;8.80;99.90;;;9.37;84.10;101331.66;5036492;28;20649;-68
2022/09/22 04:56:51;;;;;;;0.30;0.20;;;8.80;99.90;;;9.42;83.45;101335.75;5028842;28;21273;-68
2022/09/22 04:59:18;;;;;;;0.20;0.20;;;8.80;99.90;;;9.28;84.24;101350.41;5032581;28;20698;-68
2022/09/22 05:01:45;;;;;;;0.30;0.27;;;8.70;99.90;;;9.30;84.02;101350.34;5039397;28;20644;-67
2022/09/22 05:04:12;;;;;;;0.30;0.20;;;8.70;99.90;;;9.32;83.66;101346.72;5054158;28;20644;-69
2022/09/22 05:06:40;;;;;;;0.80;0.80;;;8.70;99.90;;;9.33;83.86;101345.78;5049467;28;20642;-68
2022/09/22 05:09:07;;;;;;;0.30;0.20;;;8.70;99.90;;;9.34;83.87;101349.22;5040299;28;20718;-68
2022/09/22 05:11:34;;;;;;;0.30;0.20;;;8.70;99.90;;;9.33;83.92;101351.00;5045411;28;21210;-67
2022/09/22 05:14:01;;;;;;;0.20;0.20;;;8.70;99.90;;;9.38;83.61;101350.75;5038373;28;21015;-67
2022/09/22 05:16:30;;;;;;;0.20;0.20;;;8.70;99.90;;;9.46;83.48;101342.47;5012161;28;20601;-68
2022/09/22 05:18:57;;;;;;;0.20;0.20;;;8.70;99.90;;;9.48;83.03;101351.91;5049297;28;21212;-66
2022/09/22 05:21:24;;;;;;;0.30;0.20;;;8.80;99.90;;;9.50;83.02;101352.66;5050109;28;20656;-65
2022/09/22 05:23:51;;;;;;;0.30;0.20;;;8.80;99.90;;;9.56;82.33;101356.69;5030852;28;20662;-63
2022/09/22 05:26:18;;;;;;;0.20;0.20;;;8.80;99.90;;;9.51;82.43;101356.09;5029093;28;20992;-65
2022/09/22 05:28:45;;;;;;;0.20;0.20;;;8.80;99.90;;;9.56;82.15;101359.31;5030687;28;20663;-65
2022/09/22 05:31:11;;;;;;;0.20;0.20;;;8.80;99.90;;;9.67;81.53;101355.16;5033872;28;20651;-66
2022/09/22 05:33:38;;;;;;;0.20;0.20;;;8.90;99.90;;;9.73;82.01;101361.78;5042205;28;21271;-65
2022/09/22 05:36:05;;;;;;;0.20;0.20;;;8.90;99.90;;;10.35;79.22;101359.00;5052248;28;20736;-66
2022/09/22 05:38:32;;;;;;;0.30;0.20;;;9.30;99.90;;;10.92;76.93;101370.31;5052740;28;20990;-65
2022/09/22 05:41:00;;;;;;;0.30;0.20;;;9.70;99.90;;;11.52;73.83;101369.03;5051533;28;20643;-68
2022/09/22 05:43:26;;;;;;;0.30;0.30;;;10.20;99.90;;;12.04;71.88;101363.06;5033176;28;20656;-68
2022/09/22 05:45:53;;;;;;;0.30;0.30;;;10.70;99.90;;;12.59;68.49;101362.78;5047326;28;20642;-68
2022/09/22 05:48:20;;;;;;;0.30;0.30;;;11.20;99.90;;;12.89;66.83;101373.75;5052292;28;21235;-68
2022/09/22 05:50:47;;;;;;;0.30;0.20;;;11.50;99.90;;;13.24;65.64;101367.75;5050349;28;20732;-67
2022/09/22 05:53:15;;;;;;;0.30;0.20;;;11.90;99.90;;;13.71;63.48;101366.09;5046464;28;20643;-68
2022/09/22 05:55:42;;;;;;;0.30;0.30;;;12.30;99.90;;;14.01;62.57;101369.91;5045903;28;20635;-66
2022/09/22 05:58:11;;;;;;;0.30;0.20;;;12.60;99.90;;;14.31;61.17;101364.19;5040996;28;20990;-66
2022/09/22 06:00:40;;;;;;;0.30;0.20;;;13.00;99.90;;;14.69;60.05;101371.75;5043480;28;20647;-67
2022/09/22 06:03:08;;;;;;;0.73;0.73;;;13.30;99.90;;;15.56;57.82;101374.44;5055481;28;20632;-65
2022/09/22 06:05:34;;;;;;;0.30;0.30;;;13.90;99.90;;;16.56;55.29;101376.59;5046881;28;20665;-66
2022/09/22 06:08:05;;;;;;;0.30;0.30;;;14.60;99.90;;;17.45;52.31;101369.56;5033244;28;20679;-67
2022/09/22 06:10:36;;;;;;;0.30;0.30;;;15.40;99.90;;;18.32;50.10;101365.13;5032060;28;21234;-66
2022/09/22 06:13:06;;;;;;;0.30;0.30;;;16.00;99.90;;;18.92;48.03;101369.13;5039475;28;20633;-66
2022/09/22 06:15:34;;;;;;;0.30;0.30;;;16.60;99.90;;;19.61;46.71;101370.28;5046656;28;20992;-67
2022/09/22 06:18:08;;;;;;;0.30;0.30;;;17.10;99.90;;;20.00;45.33;101376.94;5050686;28;20636;-67
2022/09/22 06:20:41;;;;;;;0.30;0.30;;;17.50;99.90;;;20.94;44.28;101371.75;5046422;28;20704;-66
2022/09/22 06:23:09;;;;;;;0.30;0.30;;;18.10;99.90;;;21.86;41.76;101369.91;5041591;28;20672;-65
2022/09/22 06:25:36;;;;;;;0.40;0.40;;;18.70;99.10;;;22.29;40.60;101382.84;5049288;28;20623;-66
2022/09/22 06:28:06;;;;;;;0.30;0.30;;;19.10;97.40;;;22.88;39.55;101374.44;5048051;28;20620;-68
2022/09/22 06:30:38;;;;;;;0.30;0.30;;;19.60;96.20;;;22.92;39.93;101382.88;5033608;28;20679;-71
2022/09/22 06:33:10;;;;;;;0.30;0.30;;;19.70;99.90;;;23.66;37.77;101375.19;5052276;28;20646;-69
2022/09/22 06:35:41;;;;;;;0.30;0.30;;;20.20;99.90;;;23.87;37.85;101369.22;5050777;28;21241;-66
2022/09/22 06:38:12;;;;;;;0.30;0.30;;;20.50;99.90;;;24.13;37.17;101372.34;5066518;28;20612;-67
2022/09/22 06:40:41;;;;;;;0.30;0.30;;;20.80;99.90;;;24.60;36.49;101372.88;5051203;28;21233;-66
2022/09/22 06:43:18;;;;;;;0.30;0.30;;;21.00;99.90;;;25.05;35.97;101384.41;5052451;28;21114;-66
2022/09/22 06:45:45;;;;;;;0.30;0.30;;;21.40;99.90;;;25.42;35.06;101370.94;5050395;28;20692;-66
2022/09/22 06:48:12;;;;;;;0.40;0.40;;;21.80;99.90;;;25.79;34.74;101373.34;5049195;28;20619;-66
2022/09/22 06:50:39;;;;;;;0.30;0.30;;;22.20;99.90;;;26.01;34.32;101376.84;5045433;28;20714;-66
2022/09/22 06:53:12;;;;;;;0.30;0.30;;;22.30;99.90;;;26.17;34.10;101373.94;5047942;28;20624;-66
2022/09/22 06:55:42;;;;;;;0.30;0.30;;;22.40;95.60;;;26.38;33.65;101381.09;5050700;28;20682;-65
2022/09/22 06:58:10;;;;;;;0.30;0.30;;;22.60;95.20;;;26.48;33.77;101376.22;5065679;28;20686;-66
2022/09/22 07:00:40;;;;;;;0.60;0.60;;;22.70;94.60;;;26.76;33.21;101374.34;5045680;28;20636;-66
2022/09/22 07:03:24;;;;;;;1.90;0.73;;;23.00;91.50;;;26.99;33.22;101366.84;5045546;28;20621;-66
2022/09/22 07:05:57;;;;;;;0.30;0.30;;;23.20;83.30;;;27.10;32.84;101371.63;5030358;28;20635;-68
2022/09/22 07:08:24;;;;;;;0.30;0.30;;;23.70;81.20;;;27.37;32.56;101370.72;5029747;28;20620;-66
2022/09/22 07:11:03;;;;;;;0.50;0.50;;;24.00;79.20;;;27.58;32.20;101361.69;5031670;28;21016;-67
2022/09/22 07:13:31;;;;;;;3.70;2.53;;;24.30;77.80;;;27.59;32.13;101366.88;5050771;28;20713;-66
2022/09/22 07:16:00;;;;;;;0.30;0.30;;;24.40;76.90;;;27.66;31.90;101364.22;5061172;28;20636;-66
2022/09/22 07:18:28;;;;;;;0.40;0.40;;;24.50;75.50;;;27.68;31.91;101368.31;5051475;28;20620;-66
2022/09/22 07:21:11;;;;;;;0.30;0.30;;;24.80;75.00;;;27.92;31.11;101368.78;5026255;28;20686;-66
2022/09/22 07:23:43;;;;;;;0.30;0.30;;;25.20;72.50;;;27.83;31.20;101375.38;5040732;28;20636;-66
2022/09/22 07:26:14;;;;;;;0.30;0.30;;;25.10;71.70;;;27.88;31.28;101368.34;5041025;28;20636;-66
2022/09/22 07:28:41;;;;;;;0.30;0.30;;;25.30;70.70;;;28.23;30.73;101364.47;5066287;28;20639;-66
2022/09/22 07:31:14;;;;;;;0.30;0.30;;;25.50;69.00;;;28.38;29.63;101365.06;5050051;28;21300;-67
2022/09/22 07:33:43;;;;;;;0.30;0.30;;;25.60;68.00;;;28.54;29.51;101368.34;5035895;28;20691;-68
2022/09/22 07:36:18;;;;;;;4.13;1.90;;;25.60;67.60;;;28.91;29.49;101364.94;5039359;28;20637;-66
2022/09/22 07:38:51;;;;;;;0.40;0.40;;;25.90;67.40;;;29.31;28.39;101368.31;5043972;28;21365;-66
2022/09/22 07:41:20;;;;;;;1.07;1.03;;;26.20;66.30;;;29.19;29.33;101367.34;5034066;28;20636;-67
2022/09/22 07:43:55;;;;;;;1.37;1.27;;;26.20;66.00;;;29.64;28.25;101372.47;5051013;28;20725;-67
2022/09/22 07:46:22;;;;;;;0.30;0.30;;;26.50;65.30;;;29.68;28.24;101362.94;5050598;28;20635;-66
2022/09/22 07:48:50;;;;;;;0.40;0.40;;;26.80;64.20;;;29.64;28.20;101367.09;5050618;28;20983;-67
2022/09/22 07:51:24;;;;;;;0.30;0.30;;;26.70;63.50;;;30.03;28.21;101359.78;5047479;28;21403;-67
2022/09/22 07:54:06;;;;;;;0.30;0.30;;;27.00;63.30;;;30.33;28.02;101363.47;5069010;22;20732;-66
2022/09/22 07:56:36;;;;;;;0.60;0.60;;;27.20;62.80;;;30.99;26.42;101366.28;5054802;28;21267;-66
2022/09/22 07:59:08;;;;;;;0.63;0.63;;;27.70;61.30;;;31.23;26.30;101370.75;5058007;28;20635;-65
2022/09/22 08:01:43;;;;;;;0.30;0.30;;;28.00;60.20;;;30.91;26.73;101364.72;5059266;28;20643;-67
2022/09/22 08:04:15;;;;;;;0.30;0.30;;;28.30;59.60;;;32.02;25.94;101370.44;5059933;28;20658;-66
2022/09/22 08:06:44;;;;;;;0.30;0.30;;;28.70;59.30;;;32.72;24.77;101366.69;5063216;28;20642;-66
2022/09/22 08:09:12;;;;;;;0.30;0.30;;;29.20;57.50;;;33.22;24.40;101358.78;5070165;28;20623;-65
2022/09/22 08:11:47;;;;;;;0.87;0.60;;;29.50;57.00;;;33.37;24.21;101367.19;5068159;28;20666;-66
2022/09/22 08:14:16;;;;;;;0.30;0.30;;;29.70;56.40;;;34.14;23.60;101367.47;5060851;28;20712;-65
2022/09/22 08:16:44;;;;;;;0.30;0.30;;;30.00;55.30;;;34.12;23.62;101372.31;5066016;28;20638;-65
2022/09/22 08:19:13;;;;;;;0.30;0.30;;;30.20;55.00;;;34.85;22.73;101367.44;5070109;28;20611;-65
2022/09/22 08:21:46;;;;;;;0.40;0.40;;;30.50;54.50;;;35.68;21.55;101371.59;5060506;28;20813;-66
2022/09/22 08:24:21;;;;;;;0.60;0.60;;;31.00;53.70;;;36.91;20.23;101373.84;5066092;28;20640;-65
2022/09/22 08:26:51;;;;;;;0.67;0.67;;;31.70;52.70;;;38.08;19.32;101369.41;5058120;28;20821;-65
2022/09/22 08:29:19;;;;;;;0.30;0.30;;;32.50;51.00;;;39.22;17.99;101370.16;5067219;28;20962;-66
2022/09/22 08:31:47;;;;;;;0.40;0.40;;;33.30;49.50;;;40.29;17.68;101365.47;5060145;28;21115;-66
2022/09/22 08:34:15;;;;;;;0.40;0.40;;;34.10;48.70;;;41.70;15.92;101374.59;5069835;28;20749;-65
2022/09/22 08:36:47;;;;;;;0.40;0.40;;;35.00;46.50;;;41.78;15.99;101365.66;5064892;28;20634;-65
2022/09/22 08:39:16;;;;;;;0.37;0.37;;;35.40;45.90;;;42.13;15.56;101362.31;5069822;28;20615;-65
2022/09/22 08:42:11;;;;;;;0.40;0.40;;;35.80;44.60;;;42.72;15.08;101357.88;5062363;28;20685;-66
2022/09/22 08:45:15;;;;;;;0.40;0.40;;;36.00;44.20;;;43.34;14.67;101357.03;5049464;28;20628;-65
2022/09/22 08:53:48;;;;;;;0.40;0.40;;;37.80;41.90;;;45.69;13.51;101355.25;5064226;28;20647;-65
2022/09/22 08:56:40;;;;;;;0.50;0.50;;;38.10;41.30;;;46.39;13.04;101351.97;5069640;28;21174;-65
2022/09/22 08:59:23;;;;;;;0.40;0.40;;;38.60;40.60;;;47.10;12.55;101350.03;5065228;28;20628;-65
2022/09/22 09:02:14;;;;;;;0.40;0.40;;;39.30;40.30;;;46.82;12.39;101347.78;5052352;28;21149;-64
2022/09/22 09:05:18;;;;;;;0.40;0.40;;;39.70;39.70;;;47.03;12.37;101353.34;5053887;28;20654;-66
2022/09/22 09:08:18;;;;;;;0.40;0.40;;;39.70;39.20;;;47.50;12.34;101354.72;5061382;28;21261;-65
2022/09/22 09:10:58;;;;;;;0.40;0.40;;;39.90;39.30;;;47.96;11.90;101355.56;5073143;28;21257;-65
2022/09/22 09:13:55;;;;;;;0.60;0.60;;;40.30;38.70;;;48.22;11.77;101354.06;5079938;28;20641;-66
2022/09/22 09:16:43;;;;;;;0.40;0.40;;;40.50;38.40;;;48.42;11.71;101359.84;5073040;28;20631;-65
2022/09/22 09:20:04;;;;;;;0.40;0.40;;;40.60;38.20;;;48.36;11.85;101345.44;5058033;28;20731;-65
2022/09/22 09:22:39;;;;;;;0.60;0.60;;;40.60;38.20;;;48.61;11.57;101349.00;5024882;28;20640;-65
2022/09/22 09:25:25;;;;;;;0.40;0.40;;;41.00;37.80;;;48.23;11.97;101343.81;5053149;28;20642;-64
2022/09/22 09:28:05;;;;;;;0.40;0.40;;;40.70;37.70;;;48.19;11.79;101348.44;5055512;28;20645;-64
2022/09/22 09:30:42;;;;;;;0.40;0.40;;;40.80;37.70;;;49.48;11.07;101350.84;5071050;28;20650;-64
2022/09/22 09:33:19;;;;;;;0.40;0.40;;;41.50;36.90;;;49.87;10.23;101345.53;5071369;28;20672;-63
2022/09/22 09:35:52;;;;;;;0.40;0.40;;;41.60;36.50;;;49.86;10.36;101344.72;5054187;28;20595;-66
2022/09/22 09:38:38;;;;;;;0.40;0.40;;;41.40;36.30;;;50.18;10.62;101345.56;5073117;28;20626;-65
2022/09/22 09:41:24;;;;;;;0.40;0.40;;;42.00;36.20;;;50.27;10.16;101341.41;5092370;28;20622;-64
2022/09/22 09:43:53;;;;;;;1.53;1.43;;;42.30;35.70;;;49.11;10.32;101340.22;5070239;28;20663;-63
2022/09/22 09:46:25;;;;;;;0.40;0.40;;;41.90;35.60;;;49.10;10.85;101335.84;5054140;28;20624;-66
2022/09/22 09:49:09;;;;;;;0.40;0.40;;;41.80;35.80;;;49.17;10.71;101336.06;5054005;28;21244;-66
2022/09/22 09:51:41;;;;;;;0.50;0.50;;;41.60;35.70;;;49.87;10.18;101337.22;5058620;28;20663;-66
2022/09/22 09:54:13;;;;;;;0.50;0.50;;;42.00;35.90;;;49.61;10.57;101326.63;5071434;28;20639;-66
2022/09/22 09:57:10;;;;;;;0.50;0.50;;;41.90;35.10;;;49.87;10.47;101332.47;5070216;28;20640;-65
2022/09/22 10:02:47;;;;;;;0.40;0.40;;;42.30;35.10;;;50.04;9.89;101320.19;5082459;28;20634;-66
2022/09/22 10:05:16;;;;;;;0.40;0.40;;;42.00;35.30;;;49.35;10.25;101317.97;5064679;28;21246;-66
2022/09/22 10:08:14;;;;;;;0.50;0.50;;;41.40;35.40;;;49.64;10.16;101317.59;5069498;28;20631;-66
2022/09/22 10:10:41;;;;;;;0.50;0.50;;;41.60;35.50;;;49.34;10.89;101303.31;5068885;28;20666;-66
2022/09/22 10:13:08;;;;;;;0.60;0.60;;;41.40;35.50;;;49.28;10.42;101303.91;5086514;28;20623;-67
2022/09/22 10:15:39;;;;;;;0.40;0.40;;;41.30;35.30;;;49.08;10.70;101300.16;5072302;28;20613;-67
2022/09/22 10:18:38;;;;;;;0.40;0.40;;;41.40;35.10;;;48.93;10.63;101298.16;5068671;28;20644;-66
2022/09/22 10:21:15;;;;;;;0.57;0.57;;;41.40;35.40;;;48.02;10.87;101287.75;5049599;28;20620;-65
2022/09/22 10:23:54;;;;;;;0.40;0.40;;;40.80;35.10;;;47.60;10.89;101289.91;5058521;28;20667;-68
2022/09/22 10:26:29;;;;;;;0.40;0.40;;;40.30;35.40;;;45.33;12.54;101272.94;5052478;28;20653;-66
2022/09/22 10:29:19;;;;;;;0.40;0.40;;;39.00;35.70;;;41.58;14.69;101272.81;5052441;28;20635;-66
2022/09/22 10:32:14;;;;;;;0.40;0.40;;;37.10;36.90;;;38.38;17.60;101263.88;5058604;28;20723;-67
2022/09/22 10:34:50;;;;;;;0.40;0.30;;;35.20;38.60;;;35.57;19.97;101258.59;5058060;28;20671;-67
2022/09/22 10:37:24;;;;;;;0.40;0.30;;;33.30;39.80;;;32.28;22.99;101263.84;5052468;28;20615;-67
2022/09/22 10:40:02;;;;;;;0.40;0.30;;;30.80;41.70;;;29.30;26.15;101251.09;5060587;28;20630;-67
2022/09/22 10:42:42;;;;;;;0.40;0.30;;;28.40;44.00;;;27.10;29.46;101245.75;5067165;28;20718;-67
2022/09/22 10:45:18;;;;;;;0.40;0.30;;;26.30;46.60;;;25.87;30.33;101247.59;5059404;28;20663;-66
2022/09/22 10:47:58;;;;;;;0.70;0.70;;;24.90;47.30;;;23.47;33.76;101242.47;5051393;28;20673;-65
2022/09/22 10:51:04;;;;;;;0.40;0.30;;;23.30;49.50;;;22.81;34.86;101245.72;5058613;28;20707;-66
2022/09/22 10:54:25;;;;;;;0.40;0.30;;;22.20;51.50;;;21.64;37.53;101247.34;5048852;28;20675;-67
2022/09/22 10:56:56;;;;;;;0.40;0.30;;;21.10;54.10;;;21.03;39.08;101232.84;5067341;28;21190;-65
2022/09/22 10:59:31;;;;;;;0.30;0.30;;;20.30;57.00;;;20.85;39.88;101244.41;5069927;28;20685;-68